< Typhoon 197307 1973 Season Typhoon 197309 >
Typhoon 197308 (GEORGIA)
General InformationTrack Information on Google Maps || Disaster Info.ResourceGoogle EarthGE AnimationAtom FeedGeoJSON
Detalied Best Track (Time Zone = UTC)
Year Month Day Hour Lat. Long. Pressure (hPa) Wind (kt) Class Image Chart
1973 8 5 06 19.0 123.0 1008 0 2 -- Chart
1973 8 5 12 20.9 121.8 1008 0 2 -- Chart
1973 8 5 18 20.8 121.0 1008 0 2 -- Chart
1973 8 6 00 20.4 120.0 1008 0 2 -- Chart
1973 8 6 06 19.6 119.0 1008 0 2 -- Chart
1973 8 6 12 19.6 118.3 1006 0 2 -- Chart
1973 8 6 18 19.6 118.3 1006 0 2 -- Chart
1973 8 7 00 19.6 118.3 1006 0 2 -- Chart
1973 8 7 06 19.6 118.3 1006 0 2 -- Chart
1973 8 7 12 19.6 118.3 1006 0 2 -- Chart
1973 8 7 18 19.6 118.3 1004 0 2 -- Chart
1973 8 8 00 19.6 118.3 1004 0 2 -- Chart
1973 8 8 06 19.6 118.3 1004 0 2 -- Chart
1973 8 8 12 19.6 118.3 1004 0 2 -- Chart
1973 8 8 18 19.6 118.3 1004 0 2 -- Chart
1973 8 9 00 19.7 117.5 1000 0 2 -- Chart
1973 8 9 06 19.9 116.7 990 0 9 -- Chart
1973 8 9 12 19.8 115.7 990 0 9 -- Chart
1973 8 9 18 19.7 115.0 980 0 9 -- Chart
1973 8 10 00 19.6 114.2 980 0 9 -- Chart
1973 8 10 06 19.5 113.3 980 0 9 -- Chart
1973 8 10 12 19.4 112.5 980 0 9 -- Chart
1973 8 10 18 19.2 111.8 980 0 9 -- Chart
1973 8 11 00 19.0 111.2 980 0 9 -- Chart
1973 8 11 06 19.0 111.6 980 0 9 -- Chart
1973 8 11 12 19.5 111.4 985 0 9 -- Chart
1973 8 11 18 19.8 111.2 985 0 9 -- Chart
1973 8 12 00 20.3 111.1 985 0 9 -- Chart
1973 8 12 06 21.0 110.8 985 0 9 -- Chart
1973 8 12 12 22.0 110.7 990 0 9 -- Chart
1973 8 12 18 22.7 110.5 994 0 2 -- Chart
1973 8 13 00 23.3 110.5 996 0 2 -- Chart
1973 8 13 06 24.0 110.6 998 0 2 -- Chart
1973 8 13 12 25.5 111.5 1000 0 2 -- Chart
1973 8 13 18 26.4 112.0 1000 0 2 -- Chart
1973 8 14 00 26.9 112.2 1000 0 2 -- Chart
1973 8 14 06 27.4 112.3 1000 0 2 -- Chart
1973 8 14 12 27.8 112.6 1000 0 2 -- Chart
1973 8 14 18 28.3 112.7 1002 0 2 -- Chart
1973 8 15 00 29.0 113.0 1002 0 2 -- Chart
1973 8 15 06 29.2 114.0 1002 0 2 -- Chart
Japan Meteorological Agency Best Track Data | Correction Date : 1990-10-17
< Typhoon 197307 1973 Season Typhoon 197309 >

Help